Terminal Aerodrome Forecast
Issued by NWS La Crosse, WI

Home | Current Version | Previous Version | Text Only | Print | Product List | Glossary On
Versions: 1 2 3 4 5 6 7 8 9 10 11 12 13 14 15 16 17 18 19 20 21 22 23
000
FTUS43 KARX 161942 AAA
TAFRST
TAF AMD
KRST 161942Z 1620/1718 30010KT P6SM SCT010
     FM170600 27009KT P6SM SCT250
     FM171500 23016KT P6SM SCT200=

USA.gov is the U.S. government's official web portal to all federal, state and local government web resources and services.